createdAt,value
2017-11-04T00:00:06.584Z,5.60
2017-11-04T00:02:34.673Z,5.70
2017-11-04T00:05:03.517Z,5.70
2017-11-04T00:07:31.603Z,5.70
2017-11-04T00:09:59.681Z,5.70
2017-11-04T00:12:27.759Z,5.60
2017-11-04T00:14:55.848Z,5.40
2017-11-04T00:17:24.691Z,5.30
2017-11-04T00:19:52.775Z,5.30
2017-11-04T00:22:20.862Z,5.30
2017-11-04T00:24:49.716Z,5.30
2017-11-04T00:27:17.804Z,5.30
2017-11-04T00:29:45.899Z,5.30
2017-11-04T00:32:14.742Z,5.10
2017-11-04T00:34:42.834Z,5.10
2017-11-04T00:37:10.924Z,5.10
2017-11-04T00:39:40.668Z,5.10
2017-11-04T00:42:08.764Z,5.10
2017-11-04T00:44:36.851Z,5.10
2017-11-04T00:47:04.947Z,5.10
2017-11-04T00:49:33.807Z,5.00
2017-11-04T00:52:01.884Z,5.00
2017-11-04T00:54:29.971Z,5.00
2017-11-04T00:56:58.823Z,5.00
2017-11-04T00:59:26.913Z,5.00
2017-11-04T01:01:54.995Z,5.00
2017-11-04T01:04:23.078Z,5.00
2017-11-04T01:06:51.944Z,4.90
2017-11-04T01:09:20.066Z,4.90
2017-11-04T01:11:48.147Z,4.90
2017-11-04T01:14:16.248Z,4.80
2017-11-04T01:16:44.341Z,4.80
2017-11-04T01:19:12.428Z,4.70
2017-11-04T01:21:40.507Z,4.70
2017-11-04T01:24:08.586Z,4.60
2017-11-04T01:26:36.677Z,4.60
2017-11-04T01:29:04.769Z,4.60
2017-11-04T01:31:32.859Z,4.50
2017-11-04T01:34:01.729Z,4.30
2017-11-04T01:36:29.821Z,4.30
2017-11-04T01:38:58.688Z,3.60
2017-11-04T01:41:26.767Z,3.60
2017-11-04T01:43:54.872Z,3.30
2017-11-04T01:46:22.956Z,3.20
2017-11-04T01:48:51.051Z,3.00
2017-11-04T01:51:19.156Z,3.40
2017-11-04T01:53:46.753Z,3.60
2017-11-04T01:56:14.829Z,3.70
2017-11-04T01:58:42.924Z,3.70
2017-11-04T02:01:11.007Z,3.80
2017-11-04T02:03:39.105Z,3.90
2017-11-04T02:06:07.952Z,3.90
2017-11-04T02:08:36.053Z,3.90
2017-11-04T02:11:04.142Z,3.90
2017-11-04T02:13:32.996Z,3.90
2017-11-04T02:16:01.087Z,3.90
2017-11-04T02:18:29.943Z,3.80
2017-11-04T02:20:58.028Z,3.80
2017-11-04T02:23:26.114Z,3.70
2017-11-04T02:25:54.969Z,3.20
2017-11-04T02:28:23.065Z,3.20
2017-11-04T02:30:51.159Z,3.20
2017-11-04T02:33:20.020Z,3.30
2017-11-04T02:35:48.108Z,3.30
2017-11-04T02:38:16.977Z,3.60
2017-11-04T02:40:45.051Z,3.60
2017-11-04T02:43:13.136Z,3.70
2017-11-04T02:45:41.987Z,3.70
2017-11-04T02:48:10.078Z,3.70
2017-11-04T02:50:38.159Z,3.70
2017-11-04T02:53:06.240Z,3.70
2017-11-04T02:55:35.098Z,3.60
2017-11-04T02:58:03.184Z,3.50
2017-11-04T03:00:31.276Z,3.60
2017-11-04T03:03:00.121Z,3.60
2017-11-04T03:05:28.206Z,3.60
2017-11-04T03:07:56.288Z,3.50
2017-11-04T03:10:24.379Z,3.60
2017-11-04T03:12:52.463Z,3.60
2017-11-04T03:15:20.563Z,3.60
2017-11-04T03:17:48.635Z,3.60
2017-11-04T03:20:16.724Z,3.60
2017-11-04T03:22:44.806Z,3.50
2017-11-04T03:25:12.883Z,3.60
2017-11-04T03:27:40.968Z,3.60
2017-11-04T03:30:09.833Z,3.50
2017-11-04T03:32:37.912Z,3.50
2017-11-04T03:35:05.999Z,3.60
2017-11-04T03:37:34.847Z,3.50
2017-11-04T03:40:02.943Z,3.50
2017-11-04T03:42:31.905Z,3.50
2017-11-04T03:45:00.000Z,3.50
2017-11-04T03:47:28.075Z,3.50
2017-11-04T03:49:56.936Z,3.60
2017-11-04T03:52:25.015Z,3.60
2017-11-04T03:54:53.105Z,3.60
2017-11-04T03:57:21.960Z,4.00
2017-11-04T03:59:50.050Z,4.00
2017-11-04T04:02:18.137Z,4.10
2017-11-04T04:04:46.997Z,4.40
2017-11-04T04:07:15.078Z,4.40
2017-11-04T04:09:43.168Z,4.20
2017-11-04T04:12:11.339Z,4.20
2017-11-04T04:14:39.810Z,4.10
2017-11-04T04:17:07.904Z,4.10
2017-11-04T04:19:36.004Z,4.10
2017-11-04T04:22:04.081Z,4.00
2017-11-04T04:24:32.170Z,3.90
2017-11-04T04:27:00.259Z,3.90
2017-11-04T04:29:28.391Z,3.90
2017-11-04T04:31:56.492Z,3.90
2017-11-04T04:34:24.582Z,3.80
2017-11-04T04:36:52.662Z,3.80
2017-11-04T04:39:21.574Z,3.70
2017-11-04T04:41:50.431Z,3.70
2017-11-04T04:44:19.291Z,3.80
2017-11-04T04:46:47.392Z,3.70
2017-11-04T04:49:15.475Z,3.80
2017-11-04T04:51:43.723Z,3.70
2017-11-04T04:54:11.831Z,3.70
2017-11-04T04:56:39.907Z,3.60
2017-11-04T04:59:08.097Z,3.60
2017-11-04T05:01:36.167Z,3.60
2017-11-04T05:04:04.265Z,3.40
2017-11-04T05:06:32.357Z,3.30
2017-11-04T05:09:00.452Z,3.40
2017-11-04T05:11:29.303Z,3.50
2017-11-04T05:13:57.392Z,3.50
2017-11-04T05:16:25.470Z,3.40
2017-11-04T05:18:54.333Z,3.40
2017-11-04T05:21:22.487Z,3.40
2017-11-04T05:23:50.578Z,3.30
2017-11-04T05:26:18.657Z,3.20
2017-11-04T05:28:46.758Z,3.40
2017-11-04T05:31:14.895Z,3.30
2017-11-04T05:33:42.970Z,3.40
2017-11-04T05:36:11.076Z,3.40
2017-11-04T05:38:39.309Z,3.50
2017-11-04T05:41:07.396Z,3.50
2017-11-04T05:43:35.522Z,3.60
2017-11-04T05:46:03.605Z,3.50
2017-11-04T05:48:31.686Z,3.30
2017-11-04T05:50:59.775Z,3.30
2017-11-04T05:53:28.631Z,3.40
2017-11-04T05:55:56.707Z,3.40
2017-11-04T05:58:24.788Z,3.50
2017-11-04T06:00:52.868Z,3.50
2017-11-04T06:03:20.947Z,3.50
2017-11-04T06:05:49.791Z,3.30
2017-11-04T06:08:17.869Z,3.30
2017-11-04T06:10:46.016Z,3.40
2017-11-04T06:13:14.104Z,3.50
2017-11-04T06:15:42.183Z,3.60
2017-11-04T06:18:10.272Z,3.60
2017-11-04T06:20:38.356Z,3.60
2017-11-04T06:23:07.207Z,3.80
2017-11-04T06:25:35.312Z,3.80
2017-11-04T06:28:03.378Z,4.00
2017-11-04T06:30:32.232Z,4.40
2017-11-04T06:33:00.321Z,4.40
2017-11-04T06:35:28.406Z,4.30
2017-11-04T06:37:56.486Z,4.40
2017-11-04T06:40:25.351Z,4.40
2017-11-04T06:42:53.441Z,4.40
2017-11-04T06:45:22.290Z,4.40
2017-11-04T06:47:50.377Z,4.30
2017-11-04T06:50:18.484Z,4.40
2017-11-04T06:52:47.331Z,4.30
2017-11-04T06:55:15.428Z,4.30
2017-11-04T06:57:44.278Z,4.60
2017-11-04T07:00:12.370Z,4.50
2017-11-04T07:02:40.450Z,4.70
2017-11-04T07:05:08.541Z,4.70
2017-11-04T07:07:37.397Z,4.70
2017-11-04T07:10:05.483Z,4.70
2017-11-04T07:12:33.566Z,4.60
2017-11-04T07:15:01.824Z,4.40
2017-11-04T07:17:29.912Z,4.40
2017-11-04T07:19:58.007Z,4.60
2017-11-04T07:22:26.112Z,4.50
2017-11-04T07:24:54.204Z,4.50
2017-11-04T07:27:22.295Z,4.60
2017-11-04T07:29:51.146Z,4.90
2017-11-04T07:32:19.231Z,4.90
2017-11-04T07:34:47.326Z,4.90
2017-11-04T07:37:15.411Z,4.80
2017-11-04T07:39:43.507Z,4.80
2017-11-04T07:42:11.587Z,5.00
2017-11-04T07:44:39.697Z,5.00
2017-11-04T07:47:08.544Z,4.80
2017-11-04T07:49:36.638Z,4.90
2017-11-04T07:52:07.266Z,4.90
2017-11-04T07:54:35.355Z,5.00
2017-11-04T07:57:04.206Z,5.10
2017-11-04T07:59:32.305Z,5.10
2017-11-04T08:02:01.168Z,4.90
2017-11-04T08:04:29.256Z,4.90
2017-11-04T08:06:57.341Z,5.30
2017-11-04T08:09:26.262Z,5.30
2017-11-04T08:11:54.366Z,5.30
2017-11-04T08:14:22.448Z,5.40
2017-11-04T08:16:50.528Z,5.40
2017-11-04T08:19:18.604Z,5.60
2017-11-04T08:21:46.699Z,5.70
2017-11-04T08:24:14.785Z,5.70
2017-11-04T08:26:42.866Z,5.80
2017-11-04T08:29:10.967Z,5.80
2017-11-04T08:31:39.072Z,5.80
2017-11-04T08:34:08.042Z,5.90
2017-11-04T08:36:36.319Z,5.80
2017-11-04T08:39:04.393Z,5.90
2017-11-04T08:41:32.490Z,5.90
2017-11-04T08:44:00.573Z,5.90
2017-11-04T08:46:28.669Z,6.10
2017-11-04T08:48:56.746Z,6.10
2017-11-04T08:51:24.831Z,6.10
2017-11-04T08:53:52.930Z,6.10
2017-11-04T08:56:21.780Z,6.10
2017-11-04T08:58:49.863Z,6.10
2017-11-04T09:01:18.711Z,6.00
2017-11-04T09:03:50.572Z,6.00
2017-11-04T09:06:18.663Z,6.10
2017-11-04T09:08:46.734Z,6.20
2017-11-04T09:11:14.820Z,6.20
2017-11-04T09:13:42.895Z,6.10
2017-11-04T09:16:10.975Z,6.30
2017-11-04T09:18:39.055Z,6.40
2017-11-04T09:21:07.902Z,6.40
2017-11-04T09:23:35.979Z,6.40
2017-11-04T09:26:04.062Z,6.40
2017-11-04T09:28:32.147Z,6.60
2017-11-04T09:31:00.239Z,6.60
2017-11-04T09:33:29.088Z,6.60
2017-11-04T09:35:57.193Z,6.60
2017-11-04T09:38:26.048Z,6.60
2017-11-04T09:40:54.124Z,6.60
2017-11-04T09:43:22.196Z,6.70
2017-11-04T09:45:50.291Z,6.70
2017-11-04T09:48:19.138Z,7.10
2017-11-04T09:50:47.284Z,7.10
2017-11-04T09:53:15.358Z,7.20
2017-11-04T09:55:43.454Z,7.40
2017-11-04T09:58:11.552Z,7.60
2017-11-04T10:00:39.643Z,7.80
2017-11-04T10:03:08.478Z,7.60
2017-11-04T10:05:36.567Z,7.60
2017-11-04T10:08:04.664Z,7.50
2017-11-04T10:10:33.524Z,7.60
2017-11-04T10:13:01.615Z,7.60
2017-11-04T10:15:29.709Z,7.60
2017-11-04T10:17:58.561Z,7.50
2017-11-04T10:20:26.638Z,7.50
2017-11-04T10:22:54.730Z,7.70
2017-11-04T10:25:23.584Z,7.70
2017-11-04T10:27:51.680Z,7.70
2017-11-04T10:30:19.771Z,7.80
2017-11-04T10:32:47.845Z,7.70
2017-11-04T10:35:15.932Z,7.60
2017-11-04T10:37:44.023Z,7.70
2017-11-04T10:40:12.106Z,7.70
2017-11-04T10:42:42.991Z,7.80
2017-11-04T10:45:11.083Z,7.90
2017-11-04T10:47:39.177Z,8.00
2017-11-04T10:50:07.292Z,8.10
2017-11-04T10:52:36.136Z,8.40
2017-11-04T10:55:04.233Z,8.40
2017-11-04T10:57:32.314Z,8.70
2017-11-04T11:00:01.160Z,8.90
2017-11-04T11:02:29.249Z,8.80
2017-11-04T11:04:57.552Z,8.90
2017-11-04T11:07:26.395Z,8.90
2017-11-04T11:09:54.471Z,8.90
2017-11-04T11:12:22.567Z,9.40
2017-11-04T11:14:51.427Z,9.80
2017-11-04T11:17:19.523Z,9.70
2017-11-04T11:19:47.603Z,10.20
2017-11-04T11:22:16.879Z,11.60
2017-11-04T11:24:45.289Z,11.60
2017-11-04T11:27:14.235Z,12.40
2017-11-04T11:29:42.320Z,12.40
2017-11-04T11:32:10.405Z,12.90
2017-11-04T11:34:38.502Z,12.80
2017-11-04T11:37:06.598Z,12.90
2017-11-04T11:39:34.681Z,12.50
2017-11-04T11:42:02.773Z,12.00
2017-11-04T11:44:30.852Z,11.50
2017-11-04T11:46:58.962Z,11.30
2017-11-04T11:49:27.126Z,11.20
2017-11-04T11:51:55.212Z,11.10
2017-11-04T11:54:23.308Z,10.80
2017-11-04T11:56:51.420Z,10.70
2017-11-04T11:59:20.268Z,10.90
2017-11-04T12:01:48.363Z,10.90
2017-11-04T12:04:16.461Z,11.30
2017-11-04T12:06:45.313Z,11.10
2017-11-04T12:09:13.394Z,11.10
2017-11-04T12:11:41.495Z,11.40
2017-11-04T12:14:09.570Z,11.80
2017-11-04T12:16:37.678Z,11.60
2017-11-04T12:19:05.747Z,11.40
2017-11-04T12:21:33.851Z,11.40
2017-11-04T12:24:02.705Z,11.70
2017-11-04T12:26:30.800Z,11.60
2017-11-04T12:28:58.871Z,11.90
2017-11-04T12:31:26.956Z,11.70
2017-11-04T12:33:55.815Z,12.30
2017-11-04T12:36:23.898Z,12.30
2017-11-04T12:38:51.988Z,12.40
2017-11-04T12:41:20.845Z,12.30
2017-11-04T12:43:48.924Z,12.30
2017-11-04T12:46:17.015Z,12.30
2017-11-04T12:48:45.863Z,12.50
2017-11-04T12:51:13.956Z,12.40
2017-11-04T12:53:42.031Z,12.70
2017-11-04T12:56:10.117Z,12.40
2017-11-04T12:58:38.957Z,12.60
2017-11-04T13:01:07.054Z,12.60
2017-11-04T13:03:35.147Z,12.60
2017-11-04T13:06:04.009Z,12.40
2017-11-04T13:08:32.092Z,12.40
2017-11-04T13:11:00.192Z,12.40
2017-11-04T13:13:28.283Z,12.40
2017-11-04T13:15:56.501Z,12.30
2017-11-04T13:18:24.582Z,12.50
2017-11-04T13:20:53.560Z,12.40
2017-11-04T13:23:21.642Z,12.30
2017-11-04T13:25:49.794Z,12.40
2017-11-04T13:28:17.884Z,12.40
2017-11-04T13:30:46.051Z,12.30
2017-11-04T13:33:14.136Z,12.20
2017-11-04T13:35:42.985Z,12.40
2017-11-04T13:38:11.088Z,12.40
2017-11-04T13:40:39.942Z,12.50
2017-11-04T13:43:08.033Z,12.50
2017-11-04T13:45:36.112Z,12.70
2017-11-04T13:48:04.967Z,12.70
2017-11-04T13:50:33.272Z,12.70
2017-11-04T13:53:01.360Z,12.70
2017-11-04T13:55:30.199Z,12.50
2017-11-04T13:57:58.286Z,12.50
2017-11-04T14:00:26.365Z,12.40
2017-11-04T14:02:54.452Z,12.40
2017-11-04T14:05:23.305Z,12.30
2017-11-04T14:07:51.403Z,12.20
2017-11-04T14:12:54.383Z,12.30
2017-11-04T14:15:22.476Z,12.30
2017-11-04T14:17:50.573Z,12.20
2017-11-04T14:20:18.659Z,12.20
2017-11-04T14:22:46.755Z,12.20
2017-11-04T14:25:14.854Z,12.10
2017-11-04T14:27:42.956Z,12.00
2017-11-04T14:30:11.050Z,11.90
2017-11-04T14:32:39.138Z,11.70
2017-11-04T14:35:07.236Z,11.60
2017-11-04T14:37:35.322Z,11.70
2017-11-04T14:40:04.177Z,11.50
2017-11-04T14:42:32.262Z,11.50
2017-11-04T14:45:00.341Z,11.50
2017-11-04T14:47:28.430Z,11.50
2017-11-04T14:49:56.514Z,11.40
2017-11-04T14:52:24.607Z,11.40
2017-11-04T14:54:52.684Z,11.40
2017-11-04T14:57:20.776Z,11.40
2017-11-04T14:59:48.872Z,11.30
2017-11-04T15:02:17.727Z,11.20
2017-11-04T15:04:45.804Z,11.20
2017-11-04T15:07:13.895Z,11.20
2017-11-04T15:09:42.743Z,11.20
2017-11-04T15:12:10.835Z,11.10
2017-11-04T15:14:38.914Z,11.10
2017-11-04T15:17:07.000Z,11.10
2017-11-04T15:19:35.841Z,11.10
2017-11-04T15:22:03.932Z,11.00
2017-11-04T15:24:32.024Z,11.00
2017-11-04T15:27:00.879Z,10.90
2017-11-04T15:29:28.975Z,10.90
2017-11-04T15:31:57.068Z,10.90
2017-11-04T15:34:25.932Z,10.80
2017-11-04T15:36:54.020Z,10.90
2017-11-04T15:39:22.860Z,10.70
2017-11-04T15:41:50.943Z,10.70
2017-11-04T15:44:19.036Z,10.70
2017-11-04T15:46:47.127Z,10.60
2017-11-04T15:49:15.971Z,10.60
2017-11-04T15:51:44.072Z,10.60
2017-11-04T15:54:12.924Z,10.50
2017-11-04T15:56:41.024Z,10.50
2017-11-04T15:59:09.104Z,10.40
2017-11-04T16:01:37.966Z,10.30
2017-11-04T16:04:06.056Z,10.30
2017-11-04T16:06:34.919Z,10.20
2017-11-04T16:09:03.006Z,10.20
2017-11-04T16:11:31.083Z,10.20
2017-11-04T16:13:59.946Z,10.10
2017-11-04T16:16:28.048Z,10.10
2017-11-04T16:18:56.897Z,10.10
2017-11-04T16:21:24.990Z,10.10
2017-11-04T16:23:53.079Z,10.00
2017-11-04T16:26:21.924Z,9.90
2017-11-04T16:28:50.007Z,9.80
2017-11-04T16:31:18.100Z,9.80
2017-11-04T16:33:46.960Z,9.70
2017-11-04T16:36:15.052Z,9.70
2017-11-04T16:38:43.148Z,9.60
2017-11-04T16:41:11.248Z,9.60
2017-11-04T16:43:39.330Z,9.60
2017-11-04T16:46:07.415Z,9.50
2017-11-04T16:48:35.506Z,9.50
2017-11-04T16:51:03.610Z,9.50
2017-11-04T16:53:31.732Z,9.60
2017-11-04T16:55:59.801Z,9.70
2017-11-04T16:58:28.156Z,9.70
2017-11-04T17:00:56.464Z,9.60
2017-11-04T17:03:25.587Z,9.50
2017-11-04T17:05:54.907Z,9.60
2017-11-04T17:08:23.743Z,9.50
2017-11-04T17:10:51.840Z,9.50
2017-11-04T17:13:20.691Z,9.50
2017-11-04T17:15:48.776Z,9.50
2017-11-04T17:18:16.914Z,9.50
2017-11-04T17:20:44.995Z,9.50
2017-11-04T17:23:13.091Z,9.50
2017-11-04T17:25:41.205Z,9.50
2017-11-04T17:28:09.276Z,9.50
2017-11-04T17:30:37.354Z,9.50
2017-11-04T17:33:05.443Z,9.40
2017-11-04T17:35:33.588Z,9.40
2017-11-04T17:38:01.655Z,9.40
2017-11-04T17:40:29.730Z,9.40
2017-11-04T17:42:57.822Z,9.40
2017-11-04T17:45:25.913Z,9.30
2017-11-04T17:47:53.996Z,9.20
2017-11-04T17:50:22.076Z,9.10
2017-11-04T17:52:50.922Z,9.10
2017-11-04T17:55:19.003Z,9.00
2017-11-04T17:57:47.143Z,9.00
2017-11-04T18:00:15.199Z,9.00
2017-11-04T18:02:43.293Z,9.00
2017-11-04T18:05:11.372Z,8.90
2017-11-04T18:07:39.520Z,8.90
2017-11-04T18:10:07.645Z,8.80
2017-11-04T18:12:35.716Z,8.90
2017-11-04T18:15:03.846Z,8.90
2017-11-04T18:17:31.922Z,8.90
2017-11-04T18:20:00.008Z,8.90
2017-11-04T18:22:28.151Z,8.90
2017-11-04T18:24:56.223Z,8.80
2017-11-04T18:27:24.320Z,8.90
2017-11-04T18:29:52.411Z,8.80
2017-11-04T18:32:20.503Z,8.80
2017-11-04T18:34:49.363Z,8.70
2017-11-04T18:37:17.468Z,8.70
2017-11-04T18:39:46.303Z,8.70
2017-11-04T18:42:14.390Z,8.70
2017-11-04T18:44:42.468Z,8.70
2017-11-04T18:47:10.557Z,8.70
2017-11-04T18:49:39.412Z,8.60
2017-11-04T18:52:07.553Z,8.60
2017-11-04T18:54:35.677Z,8.60
2017-11-04T18:57:03.747Z,8.70
2017-11-04T18:59:31.840Z,8.70
2017-11-04T19:02:00.696Z,8.80
2017-11-04T19:04:28.826Z,8.80
2017-11-04T19:06:56.957Z,8.80
2017-11-04T19:09:25.807Z,8.80
2017-11-04T19:11:53.891Z,8.80
2017-11-04T19:14:22.053Z,8.70
2017-11-04T19:19:46.590Z,8.60
2017-11-04T19:22:15.450Z,8.50
2017-11-04T19:24:43.584Z,8.50
2017-11-04T19:27:11.730Z,8.50
2017-11-04T19:29:39.806Z,8.50
2017-11-04T19:32:08.759Z,8.50
2017-11-04T19:34:36.918Z,8.50
2017-11-04T19:37:04.994Z,8.50
2017-11-04T19:39:33.095Z,8.50
2017-11-04T19:42:02.032Z,8.50
2017-11-04T19:44:30.115Z,8.40
2017-11-04T19:46:58.201Z,8.50
2017-11-04T19:49:27.015Z,8.50
2017-11-04T19:51:57.560Z,8.50
2017-11-04T19:54:25.901Z,8.50
2017-11-04T19:56:54.389Z,8.50
2017-11-04T19:59:22.557Z,8.50
2017-11-04T20:01:50.703Z,8.60
2017-11-04T20:04:18.998Z,8.60
2017-11-04T20:06:47.183Z,8.50
2017-11-04T20:09:15.999Z,8.60
2017-11-04T20:11:44.404Z,8.60
2017-11-04T20:14:13.399Z,8.50
2017-11-04T20:16:41.761Z,8.50
2017-11-04T20:19:09.917Z,8.50
2017-11-04T20:21:38.793Z,8.50
2017-11-04T20:24:07.776Z,8.50
2017-11-04T20:26:36.926Z,8.50
2017-11-04T20:29:05.232Z,8.50
2017-11-04T20:31:33.512Z,8.50
2017-11-04T20:34:01.982Z,8.50
2017-11-04T20:36:30.458Z,8.50
2017-11-04T20:38:58.833Z,8.60
2017-11-04T20:41:26.987Z,8.60
2017-11-04T20:43:55.129Z,8.60
2017-11-04T20:46:23.978Z,8.60
2017-11-04T20:48:52.080Z,8.50
2017-11-04T20:51:20.255Z,8.50
2017-11-04T20:53:48.360Z,8.50
2017-11-04T20:56:16.447Z,8.50
2017-11-04T20:58:44.539Z,8.40
2017-11-04T21:01:12.607Z,8.50
2017-11-04T21:03:41.469Z,8.50
2017-11-04T21:06:09.610Z,8.40
2017-11-04T21:08:37.697Z,8.50
2017-11-04T21:11:05.834Z,8.50
2017-11-04T21:13:34.683Z,8.40
2017-11-04T21:16:02.770Z,8.40
2017-11-04T21:18:31.686Z,8.40
2017-11-04T21:21:00.577Z,8.30
2017-11-04T21:23:29.469Z,8.30
2017-11-04T21:25:58.307Z,8.40
2017-11-04T21:28:26.427Z,8.40
2017-11-04T21:30:55.271Z,8.40
2017-11-04T21:33:23.379Z,8.30
2017-11-04T21:35:52.214Z,8.40
2017-11-04T21:38:20.342Z,8.40
2017-11-04T21:40:49.300Z,8.30
2017-11-04T21:43:18.427Z,8.30
2017-11-04T21:45:47.267Z,8.40
2017-11-04T21:48:15.407Z,8.40
2017-11-04T21:50:43.466Z,8.40
2017-11-04T21:53:11.615Z,8.40
2017-11-04T21:55:39.719Z,8.40
2017-11-04T21:58:07.801Z,8.40
2017-11-04T22:00:35.940Z,8.30
2017-11-04T22:03:04.795Z,8.30
2017-11-04T22:05:32.899Z,8.40
2017-11-04T22:08:01.042Z,8.30
2017-11-04T22:10:29.147Z,8.30
2017-11-04T22:12:57.294Z,8.40
2017-11-04T22:15:25.360Z,8.40
2017-11-04T22:17:53.523Z,8.50
2017-11-04T22:20:21.658Z,8.50
2017-11-04T22:22:49.754Z,8.40
2017-11-04T22:25:17.843Z,8.40
2017-11-04T22:27:46.715Z,8.40
2017-11-04T22:30:14.847Z,8.40
2017-11-04T22:32:42.966Z,8.40
2017-11-04T22:35:11.037Z,8.40
2017-11-04T22:37:39.183Z,8.40
2017-11-04T22:40:07.326Z,8.30
2017-11-04T22:42:36.967Z,8.20
2017-11-04T22:45:05.064Z,8.20
2017-11-04T22:47:33.144Z,8.20
2017-11-04T22:50:02.000Z,8.10
2017-11-04T22:52:30.124Z,8.10
2017-11-04T22:54:59.012Z,8.10
2017-11-04T22:57:27.839Z,8.10
2017-11-04T22:59:55.927Z,8.10
2017-11-04T23:02:24.006Z,8.10
2017-11-04T23:04:52.134Z,8.10
2017-11-04T23:07:20.197Z,8.10
2017-11-04T23:09:48.335Z,8.10
2017-11-04T23:12:17.192Z,8.20
2017-11-04T23:14:45.283Z,8.20
2017-11-04T23:17:13.363Z,8.20
2017-11-04T23:19:42.297Z,8.20
2017-11-04T23:22:10.374Z,8.20
2017-11-04T23:24:38.467Z,8.20
2017-11-04T23:27:06.551Z,8.20
2017-11-04T23:29:34.639Z,8.20
2017-11-04T23:32:03.483Z,8.20
2017-11-04T23:34:31.567Z,8.20
2017-11-04T23:36:59.654Z,8.20
2017-11-04T23:39:27.727Z,8.20
2017-11-04T23:41:56.575Z,8.10
2017-11-04T23:44:24.669Z,8.10
2017-11-04T23:46:52.756Z,8.10
2017-11-04T23:49:22.399Z,8.10
2017-11-04T23:51:50.496Z,8.00
2017-11-04T23:54:18.587Z,8.10
2017-11-04T23:56:46.676Z,8.00
2017-11-04T23:59:15.523Z,7.90
